sensor_id;sensor_type;location;lat;lon;timestamp;P1;durP1;ratioP1;P2;durP2;ratioP2
11835;SDS011;5977;51.972;7.640;2023-04-25T00:00:22;145.17;;;46.90;;
11835;SDS011;5977;51.972;7.640;2023-04-25T00:02:51;145.03;;;46.80;;
11835;SDS011;5977;51.972;7.640;2023-04-25T00:05:19;145.33;;;46.97;;
11835;SDS011;5977;51.972;7.640;2023-04-25T00:07:51;145.17;;;46.87;;
11835;SDS011;5977;51.972;7.640;2023-04-25T00:10:19;145.63;;;47.03;;
11835;SDS011;5977;51.972;7.640;2023-04-25T00:12:47;145.10;;;46.80;;
11835;SDS011;5977;51.972;7.640;2023-04-25T00:15:15;145.03;;;46.87;;
11835;SDS011;5977;51.972;7.640;2023-04-25T00:17:43;144.97;;;46.90;;
11835;SDS011;5977;51.972;7.640;2023-04-25T00:20:12;145.00;;;46.67;;
11835;SDS011;5977;51.972;7.640;2023-04-25T00:22:40;144.70;;;46.67;;
11835;SDS011;5977;51.972;7.640;2023-04-25T00:25:09;145.40;;;46.97;;
11835;SDS011;5977;51.972;7.640;2023-04-25T00:27:37;144.87;;;46.63;;
11835;SDS011;5977;51.972;7.640;2023-04-25T00:30:08;144.87;;;46.67;;
11835;SDS011;5977;51.972;7.640;2023-04-25T00:32:36;145.23;;;46.87;;
11835;SDS011;5977;51.972;7.640;2023-04-25T00:35:04;145.57;;;46.97;;
11835;SDS011;5977;51.972;7.640;2023-04-25T00:37:33;145.27;;;46.83;;
11835;SDS011;5977;51.972;7.640;2023-04-25T00:40:01;145.47;;;46.97;;
11835;SDS011;5977;51.972;7.640;2023-04-25T00:42:31;145.27;;;46.80;;
11835;SDS011;5977;51.972;7.640;2023-04-25T00:44:59;145.17;;;46.80;;
11835;SDS011;5977;51.972;7.640;2023-04-25T00:47:28;144.90;;;46.73;;
11835;SDS011;5977;51.972;7.640;2023-04-25T00:49:56;145.43;;;46.90;;
11835;SDS011;5977;51.972;7.640;2023-04-25T00:52:24;145.50;;;47.10;;
11835;SDS011;5977;51.972;7.640;2023-04-25T00:54:52;145.37;;;46.87;;
11835;SDS011;5977;51.972;7.640;2023-04-25T00:57:20;145.27;;;46.90;;
11835;SDS011;5977;51.972;7.640;2023-04-25T00:59:49;145.43;;;46.90;;
11835;SDS011;5977;51.972;7.640;2023-04-25T01:02:19;145.20;;;46.90;;
11835;SDS011;5977;51.972;7.640;2023-04-25T01:04:47;145.40;;;46.93;;
11835;SDS011;5977;51.972;7.640;2023-04-25T01:07:15;145.20;;;46.87;;
11835;SDS011;5977;51.972;7.640;2023-04-25T01:09:43;145.30;;;46.80;;
11835;SDS011;5977;51.972;7.640;2023-04-25T01:12:11;145.30;;;46.93;;
11835;SDS011;5977;51.972;7.640;2023-04-25T01:14:40;145.20;;;46.87;;
11835;SDS011;5977;51.972;7.640;2023-04-25T01:17:10;144.77;;;46.60;;
11835;SDS011;5977;51.972;7.640;2023-04-25T01:19:38;145.00;;;46.80;;
11835;SDS011;5977;51.972;7.640;2023-04-25T01:22:07;145.50;;;47.00;;
11835;SDS011;5977;51.972;7.640;2023-04-25T01:24:37;145.07;;;46.90;;
11835;SDS011;5977;51.972;7.640;2023-04-25T01:27:05;145.17;;;46.83;;
11835;SDS011;5977;51.972;7.640;2023-04-25T01:29:33;145.07;;;46.80;;
11835;SDS011;5977;51.972;7.640;2023-04-25T01:32:03;145.30;;;46.90;;
11835;SDS011;5977;51.972;7.640;2023-04-25T01:34:32;145.17;;;46.87;;
11835;SDS011;5977;51.972;7.640;2023-04-25T01:37:00;145.23;;;46.90;;
11835;SDS011;5977;51.972;7.640;2023-04-25T01:39:29;145.27;;;47.00;;
11835;SDS011;5977;51.972;7.640;2023-04-25T01:41:58;145.23;;;47.00;;
11835;SDS011;5977;51.972;7.640;2023-04-25T01:44:27;145.17;;;46.83;;
11835;SDS011;5977;51.972;7.640;2023-04-25T01:46:55;145.27;;;46.90;;
11835;SDS011;5977;51.972;7.640;2023-04-25T01:49:23;144.87;;;46.80;;
11835;SDS011;5977;51.972;7.640;2023-04-25T01:51:51;144.80;;;46.70;;
11835;SDS011;5977;51.972;7.640;2023-04-25T01:54:18;144.70;;;46.70;;
11835;SDS011;5977;51.972;7.640;2023-04-25T01:56:51;145.20;;;46.87;;
11835;SDS011;5977;51.972;7.640;2023-04-25T01:59:20;145.27;;;46.97;;
11835;SDS011;5977;51.972;7.640;2023-04-25T02:02:15;145.03;;;46.77;;
11835;SDS011;5977;51.972;7.640;2023-04-25T02:04:43;144.93;;;46.77;;
11835;SDS011;5977;51.972;7.640;2023-04-25T02:07:12;145.80;;;47.20;;
11835;SDS011;5977;51.972;7.640;2023-04-25T02:09:51;144.57;;;46.60;;
11835;SDS011;5977;51.972;7.640;2023-04-25T02:12:22;145.20;;;46.97;;
11835;SDS011;5977;51.972;7.640;2023-04-25T02:15:03;145.37;;;46.90;;
11835;SDS011;5977;51.972;7.640;2023-04-25T02:17:37;145.03;;;46.87;;
11835;SDS011;5977;51.972;7.640;2023-04-25T02:20:06;145.10;;;46.87;;
11835;SDS011;5977;51.972;7.640;2023-04-25T02:22:34;144.57;;;46.67;;
11835;SDS011;5977;51.972;7.640;2023-04-25T02:25:05;145.00;;;46.90;;
11835;SDS011;5977;51.972;7.640;2023-04-25T02:27:35;145.03;;;46.90;;
11835;SDS011;5977;51.972;7.640;2023-04-25T02:30:03;145.17;;;47.03;;
11835;SDS011;5977;51.972;7.640;2023-04-25T02:32:32;144.97;;;46.77;;
11835;SDS011;5977;51.972;7.640;2023-04-25T02:35:01;144.53;;;46.77;;
11835;SDS011;5977;51.972;7.640;2023-04-25T02:37:30;144.97;;;46.83;;
11835;SDS011;5977;51.972;7.640;2023-04-25T02:39:58;144.73;;;46.83;;
11835;SDS011;5977;51.972;7.640;2023-04-25T02:42:25;144.77;;;46.93;;
11835;SDS011;5977;51.972;7.640;2023-04-25T02:44:57;144.60;;;46.70;;
11835;SDS011;5977;51.972;7.640;2023-04-25T02:47:25;145.13;;;46.97;;
11835;SDS011;5977;51.972;7.640;2023-04-25T02:49:53;144.10;;;46.50;;
11835;SDS011;5977;51.972;7.640;2023-04-25T02:52:21;144.40;;;46.57;;
11835;SDS011;5977;51.972;7.640;2023-04-25T02:54:57;144.40;;;46.70;;
11835;SDS011;5977;51.972;7.640;2023-04-25T02:57:26;144.77;;;46.83;;
11835;SDS011;5977;51.972;7.640;2023-04-25T02:59:55;144.73;;;46.80;;
11835;SDS011;5977;51.972;7.640;2023-04-25T03:02:24;144.83;;;46.80;;
11835;SDS011;5977;51.972;7.640;2023-04-25T03:04:52;145.53;;;47.00;;
11835;SDS011;5977;51.972;7.640;2023-04-25T03:07:20;144.97;;;46.80;;
11835;SDS011;5977;51.972;7.640;2023-04-25T03:09:48;145.00;;;46.90;;
11835;SDS011;5977;51.972;7.640;2023-04-25T03:12:15;144.67;;;46.67;;
11835;SDS011;5977;51.972;7.640;2023-04-25T03:14:45;144.97;;;46.80;;
11835;SDS011;5977;51.972;7.640;2023-04-25T03:17:14;145.33;;;47.00;;
11835;SDS011;5977;51.972;7.640;2023-04-25T03:19:43;145.23;;;46.93;;
11835;SDS011;5977;51.972;7.640;2023-04-25T03:22:11;144.33;;;46.60;;
11835;SDS011;5977;51.972;7.640;2023-04-25T03:24:39;145.03;;;46.97;;
11835;SDS011;5977;51.972;7.640;2023-04-25T03:27:07;145.13;;;46.93;;
11835;SDS011;5977;51.972;7.640;2023-04-25T03:29:35;144.87;;;46.87;;
11835;SDS011;5977;51.972;7.640;2023-04-25T03:32:04;145.70;;;47.10;;
11835;SDS011;5977;51.972;7.640;2023-04-25T03:34:32;145.53;;;47.00;;
11835;SDS011;5977;51.972;7.640;2023-04-25T03:37:01;145.10;;;46.77;;
11835;SDS011;5977;51.972;7.640;2023-04-25T03:39:33;146.03;;;47.13;;
11835;SDS011;5977;51.972;7.640;2023-04-25T03:42:01;145.47;;;46.80;;
11835;SDS011;5977;51.972;7.640;2023-04-25T03:44:30;145.73;;;47.10;;
11835;SDS011;5977;51.972;7.640;2023-04-25T03:46:59;144.93;;;46.80;;
11835;SDS011;5977;51.972;7.640;2023-04-25T03:49:28;145.33;;;47.03;;
11835;SDS011;5977;51.972;7.640;2023-04-25T03:51:59;145.27;;;47.07;;
11835;SDS011;5977;51.972;7.640;2023-04-25T03:54:33;144.90;;;46.73;;
11835;SDS011;5977;51.972;7.640;2023-04-25T03:57:08;145.17;;;46.93;;
11835;SDS011;5977;51.972;7.640;2023-04-25T03:59:38;144.83;;;46.70;;
11835;SDS011;5977;51.972;7.640;2023-04-25T04:02:08;145.57;;;47.00;;
11835;SDS011;5977;51.972;7.640;2023-04-25T04:04:37;144.87;;;46.87;;
11835;SDS011;5977;51.972;7.640;2023-04-25T04:07:06;145.37;;;47.00;;
11835;SDS011;5977;51.972;7.640;2023-04-25T04:09:37;145.37;;;47.00;;
11835;SDS011;5977;51.972;7.640;2023-04-25T04:12:13;145.50;;;47.00;;
11835;SDS011;5977;51.972;7.640;2023-04-25T04:14:41;145.40;;;47.00;;
11835;SDS011;5977;51.972;7.640;2023-04-25T04:17:09;145.33;;;46.93;;
11835;SDS011;5977;51.972;7.640;2023-04-25T04:19:37;145.10;;;46.90;;
11835;SDS011;5977;51.972;7.640;2023-04-25T04:22:11;145.37;;;46.90;;
11835;SDS011;5977;51.972;7.640;2023-04-25T04:24:40;145.07;;;46.93;;
11835;SDS011;5977;51.972;7.640;2023-04-25T04:27:10;145.07;;;46.70;;
11835;SDS011;5977;51.972;7.640;2023-04-25T04:29:45;145.37;;;46.93;;
11835;SDS011;5977;51.972;7.640;2023-04-25T04:32:18;145.73;;;47.07;;
11835;SDS011;5977;51.972;7.640;2023-04-25T04:34:46;145.13;;;46.97;;
11835;SDS011;5977;51.972;7.640;2023-04-25T04:37:16;145.37;;;46.97;;
11835;SDS011;5977;51.972;7.640;2023-04-25T04:39:46;145.63;;;47.00;;
11835;SDS011;5977;51.972;7.640;2023-04-25T04:42:28;145.10;;;46.73;;
11835;SDS011;5977;51.972;7.640;2023-04-25T04:45:22;145.27;;;46.80;;
11835;SDS011;5977;51.972;7.640;2023-04-25T04:48:07;145.30;;;46.90;;
11835;SDS011;5977;51.972;7.640;2023-04-25T04:50:53;145.97;;;47.00;;
11835;SDS011;5977;51.972;7.640;2023-04-25T04:53:48;144.93;;;46.70;;
11835;SDS011;5977;51.972;7.640;2023-04-25T04:56:38;145.40;;;46.97;;
11835;SDS011;5977;51.972;7.640;2023-04-25T04:59:21;145.93;;;47.10;;
11835;SDS011;5977;51.972;7.640;2023-04-25T05:02:08;146.47;;;47.30;;
11835;SDS011;5977;51.972;7.640;2023-04-25T05:04:55;146.17;;;47.20;;
11835;SDS011;5977;51.972;7.640;2023-04-25T05:07:42;145.57;;;47.07;;
11835;SDS011;5977;51.972;7.640;2023-04-25T05:10:33;145.70;;;47.13;;
11835;SDS011;5977;51.972;7.640;2023-04-25T05:13:18;145.80;;;47.03;;
11835;SDS011;5977;51.972;7.640;2023-04-25T05:16:02;145.40;;;46.87;;
11835;SDS011;5977;51.972;7.640;2023-04-25T05:18:45;145.97;;;47.10;;
11835;SDS011;5977;51.972;7.640;2023-04-25T05:21:29;145.10;;;46.90;;
11835;SDS011;5977;51.972;7.640;2023-04-25T05:24:24;145.40;;;46.93;;
11835;SDS011;5977;51.972;7.640;2023-04-25T05:27:24;146.10;;;47.23;;
11835;SDS011;5977;51.972;7.640;2023-04-25T05:30:06;146.07;;;47.23;;
11835;SDS011;5977;51.972;7.640;2023-04-25T05:32:49;146.43;;;47.33;;
11835;SDS011;5977;51.972;7.640;2023-04-25T05:35:17;146.23;;;47.27;;
11835;SDS011;5977;51.972;7.640;2023-04-25T05:37:47;146.33;;;47.27;;
11835;SDS011;5977;51.972;7.640;2023-04-25T05:40:15;145.43;;;47.03;;
11835;SDS011;5977;51.972;7.640;2023-04-25T05:42:43;145.90;;;47.23;;
11835;SDS011;5977;51.972;7.640;2023-04-25T05:45:31;145.53;;;47.10;;
11835;SDS011;5977;51.972;7.640;2023-04-25T05:48:26;145.90;;;47.23;;
11835;SDS011;5977;51.972;7.640;2023-04-25T05:51:03;145.53;;;47.03;;
11835;SDS011;5977;51.972;7.640;2023-04-25T05:53:51;145.63;;;47.00;;
11835;SDS011;5977;51.972;7.640;2023-04-25T05:56:20;145.60;;;47.03;;
11835;SDS011;5977;51.972;7.640;2023-04-25T05:58:51;145.93;;;47.27;;
11835;SDS011;5977;51.972;7.640;2023-04-25T06:01:21;145.63;;;47.17;;
11835;SDS011;5977;51.972;7.640;2023-04-25T06:03:49;144.97;;;46.80;;
11835;SDS011;5977;51.972;7.640;2023-04-25T06:06:19;144.67;;;46.67;;
11835;SDS011;5977;51.972;7.640;2023-04-25T06:08:47;145.50;;;47.07;;
11835;SDS011;5977;51.972;7.640;2023-04-25T06:11:14;145.13;;;46.90;;
11835;SDS011;5977;51.972;7.640;2023-04-25T06:13:43;144.93;;;46.80;;
11835;SDS011;5977;51.972;7.640;2023-04-25T06:16:11;144.30;;;46.57;;
11835;SDS011;5977;51.972;7.640;2023-04-25T06:18:40;145.00;;;46.80;;
11835;SDS011;5977;51.972;7.640;2023-04-25T06:21:08;145.67;;;46.97;;
11835;SDS011;5977;51.972;7.640;2023-04-25T06:23:36;144.50;;;46.67;;
11835;SDS011;5977;51.972;7.640;2023-04-25T06:26:06;145.10;;;46.70;;
11835;SDS011;5977;51.972;7.640;2023-04-25T06:28:36;144.37;;;46.50;;
11835;SDS011;5977;51.972;7.640;2023-04-25T06:31:04;144.97;;;46.77;;
11835;SDS011;5977;51.972;7.640;2023-04-25T06:33:32;144.10;;;46.57;;
11835;SDS011;5977;51.972;7.640;2023-04-25T06:36:03;143.53;;;46.30;;
11835;SDS011;5977;51.972;7.640;2023-04-25T06:38:31;145.33;;;46.90;;
11835;SDS011;5977;51.972;7.640;2023-04-25T06:41:00;144.20;;;46.50;;
11835;SDS011;5977;51.972;7.640;2023-04-25T06:43:32;144.40;;;46.60;;
11835;SDS011;5977;51.972;7.640;2023-04-25T06:46:02;144.00;;;46.43;;
11835;SDS011;5977;51.972;7.640;2023-04-25T06:48:34;144.77;;;46.67;;
11835;SDS011;5977;51.972;7.640;2023-04-25T06:51:05;144.40;;;46.63;;
11835;SDS011;5977;51.972;7.640;2023-04-25T06:53:34;144.23;;;46.50;;
11835;SDS011;5977;51.972;7.640;2023-04-25T06:56:05;143.80;;;46.47;;
11835;SDS011;5977;51.972;7.640;2023-04-25T06:58:45;144.10;;;46.60;;
11835;SDS011;5977;51.972;7.640;2023-04-25T07:01:20;143.83;;;46.47;;
11835;SDS011;5977;51.972;7.640;2023-04-25T07:03:48;144.20;;;46.63;;
11835;SDS011;5977;51.972;7.640;2023-04-25T07:06:19;144.67;;;46.73;;
11835;SDS011;5977;51.972;7.640;2023-04-25T07:08:47;144.87;;;46.77;;
11835;SDS011;5977;51.972;7.640;2023-04-25T07:11:15;145.27;;;46.80;;
11835;SDS011;5977;51.972;7.640;2023-04-25T07:13:43;145.03;;;46.80;;
11835;SDS011;5977;51.972;7.640;2023-04-25T07:16:11;144.20;;;46.50;;
11835;SDS011;5977;51.972;7.640;2023-04-25T07:18:39;145.10;;;46.73;;
11835;SDS011;5977;51.972;7.640;2023-04-25T07:21:08;144.37;;;46.60;;
11835;SDS011;5977;51.972;7.640;2023-04-25T07:23:38;144.07;;;46.53;;
11835;SDS011;5977;51.972;7.640;2023-04-25T07:26:13;144.20;;;46.80;;
11835;SDS011;5977;51.972;7.640;2023-04-25T07:29:01;144.50;;;46.70;;
11835;SDS011;5977;51.972;7.640;2023-04-25T07:31:29;144.83;;;46.73;;
11835;SDS011;5977;51.972;7.640;2023-04-25T07:33:57;144.63;;;46.83;;
11835;SDS011;5977;51.972;7.640;2023-04-25T07:36:27;145.27;;;47.00;;
11835;SDS011;5977;51.972;7.640;2023-04-25T07:38:56;145.07;;;47.10;;
11835;SDS011;5977;51.972;7.640;2023-04-25T07:41:24;144.43;;;46.97;;
11835;SDS011;5977;51.972;7.640;2023-04-25T07:43:52;145.93;;;47.40;;
11835;SDS011;5977;51.972;7.640;2023-04-25T07:46:20;147.20;;;47.83;;
11835;SDS011;5977;51.972;7.640;2023-04-25T07:48:48;148.97;;;48.47;;
11835;SDS011;5977;51.972;7.640;2023-04-25T07:51:17;150.27;;;48.83;;
11835;SDS011;5977;51.972;7.640;2023-04-25T07:53:47;149.40;;;48.63;;
11835;SDS011;5977;51.972;7.640;2023-04-25T07:56:17;150.00;;;48.77;;
11835;SDS011;5977;51.972;7.640;2023-04-25T07:58:47;151.07;;;48.97;;
11835;SDS011;5977;51.972;7.640;2023-04-25T08:01:17;149.60;;;48.30;;
11835;SDS011;5977;51.972;7.640;2023-04-25T08:03:52;150.70;;;48.73;;
11835;SDS011;5977;51.972;7.640;2023-04-25T08:06:26;149.20;;;48.37;;
11835;SDS011;5977;51.972;7.640;2023-04-25T08:09:06;148.67;;;48.13;;
11835;SDS011;5977;51.972;7.640;2023-04-25T08:11:39;148.03;;;48.00;;
11835;SDS011;5977;51.972;7.640;2023-04-25T08:14:09;149.00;;;48.50;;
11835;SDS011;5977;51.972;7.640;2023-04-25T08:16:37;150.13;;;48.50;;
11835;SDS011;5977;51.972;7.640;2023-04-25T08:19:05;148.83;;;48.13;;
11835;SDS011;5977;51.972;7.640;2023-04-25T08:21:34;148.33;;;48.00;;
11835;SDS011;5977;51.972;7.640;2023-04-25T08:24:05;147.80;;;47.67;;
11835;SDS011;5977;51.972;7.640;2023-04-25T08:26:36;146.50;;;47.57;;
11835;SDS011;5977;51.972;7.640;2023-04-25T08:29:09;147.83;;;47.80;;
11835;SDS011;5977;51.972;7.640;2023-04-25T08:31:39;147.97;;;47.77;;
11835;SDS011;5977;51.972;7.640;2023-04-25T08:34:08;147.83;;;47.83;;
11835;SDS011;5977;51.972;7.640;2023-04-25T08:36:44;145.90;;;47.40;;
11835;SDS011;5977;51.972;7.640;2023-04-25T08:39:32;147.37;;;48.03;;
11835;SDS011;5977;51.972;7.640;2023-04-25T08:42:25;148.23;;;47.90;;
11835;SDS011;5977;51.972;7.640;2023-04-25T08:44:55;148.03;;;48.27;;
11835;SDS011;5977;51.972;7.640;2023-04-25T08:47:28;149.70;;;48.83;;
11835;SDS011;5977;51.972;7.640;2023-04-25T08:49:57;151.67;;;49.70;;
11835;SDS011;5977;51.972;7.640;2023-04-25T08:52:27;153.13;;;49.77;;
11835;SDS011;5977;51.972;7.640;2023-04-25T08:55:00;152.60;;;49.73;;
11835;SDS011;5977;51.972;7.640;2023-04-25T08:57:30;152.40;;;49.33;;
11835;SDS011;5977;51.972;7.640;2023-04-25T09:00:01;152.30;;;49.10;;
11835;SDS011;5977;51.972;7.640;2023-04-25T09:02:36;152.77;;;49.30;;
11835;SDS011;5977;51.972;7.640;2023-04-25T09:05:06;151.57;;;48.77;;
11835;SDS011;5977;51.972;7.640;2023-04-25T09:07:36;150.97;;;48.50;;
11835;SDS011;5977;51.972;7.640;2023-04-25T09:10:05;151.20;;;48.67;;
11835;SDS011;5977;51.972;7.640;2023-04-25T09:12:37;150.47;;;48.47;;
11835;SDS011;5977;51.972;7.640;2023-04-25T09:15:07;149.60;;;48.23;;
11835;SDS011;5977;51.972;7.640;2023-04-25T09:18:00;149.97;;;48.30;;
11835;SDS011;5977;51.972;7.640;2023-04-25T09:20:33;149.83;;;48.17;;
11835;SDS011;5977;51.972;7.640;2023-04-25T09:23:26;148.90;;;47.90;;
11835;SDS011;5977;51.972;7.640;2023-04-25T09:25:54;149.17;;;47.93;;
11835;SDS011;5977;51.972;7.640;2023-04-25T09:28:24;148.93;;;47.97;;
11835;SDS011;5977;51.972;7.640;2023-04-25T09:30:57;147.63;;;47.57;;
11835;SDS011;5977;51.972;7.640;2023-04-25T09:33:35;148.43;;;47.90;;
11835;SDS011;5977;51.972;7.640;2023-04-25T09:36:05;148.43;;;48.13;;
11835;SDS011;5977;51.972;7.640;2023-04-25T09:38:55;148.60;;;48.10;;
11835;SDS011;5977;51.972;7.640;2023-04-25T09:41:27;149.77;;;48.40;;
11835;SDS011;5977;51.972;7.640;2023-04-25T09:44:00;150.17;;;48.63;;
11835;SDS011;5977;51.972;7.640;2023-04-25T09:46:36;150.83;;;48.80;;
11835;SDS011;5977;51.972;7.640;2023-04-25T09:49:08;150.70;;;48.63;;
11835;SDS011;5977;51.972;7.640;2023-04-25T09:51:59;149.57;;;48.23;;
11835;SDS011;5977;51.972;7.640;2023-04-25T09:54:36;149.50;;;48.23;;
11835;SDS011;5977;51.972;7.640;2023-04-25T09:57:10;149.00;;;48.07;;
11835;SDS011;5977;51.972;7.640;2023-04-25T09:59:43;148.03;;;47.77;;
11835;SDS011;5977;51.972;7.640;2023-04-25T10:02:13;148.87;;;48.20;;
11835;SDS011;5977;51.972;7.640;2023-04-25T10:04:44;148.07;;;47.67;;
11835;SDS011;5977;51.972;7.640;2023-04-25T10:07:21;147.43;;;47.63;;
11835;SDS011;5977;51.972;7.640;2023-04-25T10:09:53;148.63;;;48.03;;
11835;SDS011;5977;51.972;7.640;2023-04-25T10:12:25;149.07;;;48.20;;
11835;SDS011;5977;51.972;7.640;2023-04-25T10:14:55;149.70;;;48.37;;
11835;SDS011;5977;51.972;7.640;2023-04-25T10:17:23;149.30;;;48.07;;
11835;SDS011;5977;51.972;7.640;2023-04-25T10:19:53;148.37;;;47.83;;
11835;SDS011;5977;51.972;7.640;2023-04-25T10:22:23;148.70;;;48.17;;
11835;SDS011;5977;51.972;7.640;2023-04-25T10:24:58;148.40;;;48.23;;
11835;SDS011;5977;51.972;7.640;2023-04-25T10:27:26;148.40;;;48.07;;
11835;SDS011;5977;51.972;7.640;2023-04-25T10:30:02;149.93;;;48.40;;
11835;SDS011;5977;51.972;7.640;2023-04-25T10:32:32;148.70;;;48.17;;
11835;SDS011;5977;51.972;7.640;2023-04-25T10:35:09;148.97;;;48.23;;
11835;SDS011;5977;51.972;7.640;2023-04-25T10:37:38;149.37;;;48.60;;
11835;SDS011;5977;51.972;7.640;2023-04-25T10:40:23;149.97;;;48.57;;
11835;SDS011;5977;51.972;7.640;2023-04-25T10:42:51;149.80;;;48.40;;
11835;SDS011;5977;51.972;7.640;2023-04-25T10:45:20;149.90;;;48.47;;
11835;SDS011;5977;51.972;7.640;2023-04-25T10:47:48;148.83;;;48.00;;
11835;SDS011;5977;51.972;7.640;2023-04-25T10:50:16;149.23;;;48.23;;
11835;SDS011;5977;51.972;7.640;2023-04-25T10:52:44;149.03;;;48.23;;
11835;SDS011;5977;51.972;7.640;2023-04-25T10:55:12;148.77;;;48.00;;
11835;SDS011;5977;51.972;7.640;2023-04-25T10:57:40;146.83;;;47.37;;
11835;SDS011;5977;51.972;7.640;2023-04-25T11:00:13;147.00;;;47.47;;
11835;SDS011;5977;51.972;7.640;2023-04-25T11:02:44;147.37;;;47.60;;
11835;SDS011;5977;51.972;7.640;2023-04-25T11:05:20;146.37;;;47.30;;
11835;SDS011;5977;51.972;7.640;2023-04-25T11:07:58;146.10;;;47.20;;
11835;SDS011;5977;51.972;7.640;2023-04-25T11:10:33;145.60;;;46.87;;
11835;SDS011;5977;51.972;7.640;2023-04-25T11:13:02;146.07;;;47.10;;
11835;SDS011;5977;51.972;7.640;2023-04-25T11:15:31;145.30;;;46.93;;
11835;SDS011;5977;51.972;7.640;2023-04-25T11:18:00;145.23;;;46.87;;
11835;SDS011;5977;51.972;7.640;2023-04-25T11:20:29;145.20;;;46.80;;
11835;SDS011;5977;51.972;7.640;2023-04-25T11:22:57;145.63;;;46.93;;
11835;SDS011;5977;51.972;7.640;2023-04-25T11:25:26;145.90;;;47.10;;
11835;SDS011;5977;51.972;7.640;2023-04-25T11:27:54;145.43;;;46.87;;
11835;SDS011;5977;51.972;7.640;2023-04-25T11:30:23;145.13;;;46.67;;
11835;SDS011;5977;51.972;7.640;2023-04-25T11:32:52;145.13;;;46.80;;
11835;SDS011;5977;51.972;7.640;2023-04-25T11:35:22;145.67;;;47.03;;
11835;SDS011;5977;51.972;7.640;2023-04-25T11:37:51;145.27;;;46.90;;
11835;SDS011;5977;51.972;7.640;2023-04-25T11:40:19;145.67;;;47.00;;
11835;SDS011;5977;51.972;7.640;2023-04-25T11:42:47;145.70;;;47.13;;
11835;SDS011;5977;51.972;7.640;2023-04-25T11:45:17;145.67;;;47.13;;
11835;SDS011;5977;51.972;7.640;2023-04-25T11:47:46;145.70;;;47.07;;
11835;SDS011;5977;51.972;7.640;2023-04-25T11:50:14;145.73;;;46.97;;
11835;SDS011;5977;51.972;7.640;2023-04-25T11:52:44;146.03;;;47.17;;
11835;SDS011;5977;51.972;7.640;2023-04-25T11:55:12;145.57;;;46.97;;
11835;SDS011;5977;51.972;7.640;2023-04-25T11:57:41;146.23;;;47.13;;
11835;SDS011;5977;51.972;7.640;2023-04-25T12:00:11;145.87;;;47.03;;
11835;SDS011;5977;51.972;7.640;2023-04-25T12:02:45;146.60;;;47.37;;
11835;SDS011;5977;51.972;7.640;2023-04-25T12:05:14;146.10;;;47.13;;
11835;SDS011;5977;51.972;7.640;2023-04-25T12:07:59;146.50;;;47.27;;
11835;SDS011;5977;51.972;7.640;2023-04-25T12:10:38;147.10;;;47.60;;
11835;SDS011;5977;51.972;7.640;2023-04-25T12:13:20;147.37;;;47.60;;
11835;SDS011;5977;51.972;7.640;2023-04-25T12:15:49;146.43;;;47.10;;
11835;SDS011;5977;51.972;7.640;2023-04-25T12:18:18;146.63;;;47.53;;
11835;SDS011;5977;51.972;7.640;2023-04-25T12:20:48;146.30;;;47.23;;
11835;SDS011;5977;51.972;7.640;2023-04-25T12:23:17;146.57;;;47.47;;
11835;SDS011;5977;51.972;7.640;2023-04-25T12:25:52;146.57;;;47.43;;
11835;SDS011;5977;51.972;7.640;2023-04-25T12:28:20;147.00;;;47.63;;
11835;SDS011;5977;51.972;7.640;2023-04-25T12:30:56;146.57;;;47.47;;
11835;SDS011;5977;51.972;7.640;2023-04-25T12:33:26;146.20;;;47.27;;
11835;SDS011;5977;51.972;7.640;2023-04-25T12:35:55;147.00;;;47.57;;
11835;SDS011;5977;51.972;7.640;2023-04-25T12:38:25;146.20;;;47.20;;
11835;SDS011;5977;51.972;7.640;2023-04-25T12:40:55;146.67;;;47.43;;
11835;SDS011;5977;51.972;7.640;2023-04-25T12:43:23;147.13;;;47.57;;
11835;SDS011;5977;51.972;7.640;2023-04-25T12:45:52;147.23;;;47.70;;
11835;SDS011;5977;51.972;7.640;2023-04-25T12:48:21;147.30;;;47.63;;
11835;SDS011;5977;51.972;7.640;2023-04-25T12:50:50;147.90;;;47.93;;
11835;SDS011;5977;51.972;7.640;2023-04-25T12:53:19;147.37;;;47.83;;
11835;SDS011;5977;51.972;7.640;2023-04-25T12:55:49;147.27;;;47.73;;
11835;SDS011;5977;51.972;7.640;2023-04-25T12:58:17;147.33;;;47.80;;
11835;SDS011;5977;51.972;7.640;2023-04-25T13:00:46;147.07;;;47.67;;
11835;SDS011;5977;51.972;7.640;2023-04-25T13:03:14;147.40;;;47.77;;
11835;SDS011;5977;51.972;7.640;2023-04-25T13:05:42;147.07;;;47.50;;
11835;SDS011;5977;51.972;7.640;2023-04-25T13:08:10;146.10;;;47.20;;
11835;SDS011;5977;51.972;7.640;2023-04-25T13:10:38;146.40;;;47.20;;
11835;SDS011;5977;51.972;7.640;2023-04-25T13:13:07;146.47;;;47.50;;
11835;SDS011;5977;51.972;7.640;2023-04-25T13:15:35;146.13;;;47.27;;
11835;SDS011;5977;51.972;7.640;2023-04-25T13:18:03;146.47;;;47.40;;
11835;SDS011;5977;51.972;7.640;2023-04-25T13:20:32;146.10;;;47.23;;
11835;SDS011;5977;51.972;7.640;2023-04-25T13:23:00;146.17;;;47.17;;
11835;SDS011;5977;51.972;7.640;2023-04-25T13:25:28;146.60;;;47.47;;
11835;SDS011;5977;51.972;7.640;2023-04-25T13:27:56;145.87;;;47.07;;
11835;SDS011;5977;51.972;7.640;2023-04-25T13:30:25;147.33;;;47.73;;
11835;SDS011;5977;51.972;7.640;2023-04-25T13:32:53;146.33;;;47.43;;
11835;SDS011;5977;51.972;7.640;2023-04-25T13:35:23;145.80;;;47.00;;
11835;SDS011;5977;51.972;7.640;2023-04-25T13:37:51;146.20;;;47.33;;
11835;SDS011;5977;51.972;7.640;2023-04-25T13:40:19;145.80;;;47.10;;
11835;SDS011;5977;51.972;7.640;2023-04-25T13:42:50;146.20;;;47.33;;
11835;SDS011;5977;51.972;7.640;2023-04-25T13:45:18;145.27;;;46.93;;
11835;SDS011;5977;51.972;7.640;2023-04-25T13:47:47;145.50;;;47.10;;
11835;SDS011;5977;51.972;7.640;2023-04-25T13:50:15;145.57;;;47.07;;
11835;SDS011;5977;51.972;7.640;2023-04-25T13:52:43;146.13;;;47.37;;
11835;SDS011;5977;51.972;7.640;2023-04-25T13:55:11;145.67;;;47.07;;
11835;SDS011;5977;51.972;7.640;2023-04-25T13:57:39;145.80;;;47.17;;
11835;SDS011;5977;51.972;7.640;2023-04-25T14:00:07;146.03;;;47.27;;
11835;SDS011;5977;51.972;7.640;2023-04-25T14:02:36;145.63;;;47.07;;
11835;SDS011;5977;51.972;7.640;2023-04-25T14:05:06;146.03;;;47.30;;
11835;SDS011;5977;51.972;7.640;2023-04-25T14:07:35;145.47;;;47.07;;
11835;SDS011;5977;51.972;7.640;2023-04-25T14:10:04;145.43;;;46.97;;
11835;SDS011;5977;51.972;7.640;2023-04-25T14:12:33;144.67;;;46.67;;
11835;SDS011;5977;51.972;7.640;2023-04-25T14:15:01;145.37;;;47.03;;
11835;SDS011;5977;51.972;7.640;2023-04-25T14:17:29;145.37;;;46.90;;
11835;SDS011;5977;51.972;7.640;2023-04-25T14:19:57;145.73;;;47.00;;
11835;SDS011;5977;51.972;7.640;2023-04-25T14:22:26;145.00;;;46.87;;
11835;SDS011;5977;51.972;7.640;2023-04-25T14:24:54;146.17;;;47.17;;
11835;SDS011;5977;51.972;7.640;2023-04-25T14:27:22;145.87;;;47.20;;
11835;SDS011;5977;51.972;7.640;2023-04-25T14:29:51;146.10;;;47.40;;
11835;SDS011;5977;51.972;7.640;2023-04-25T14:32:19;145.37;;;47.03;;
11835;SDS011;5977;51.972;7.640;2023-04-25T14:34:47;145.63;;;47.07;;
11835;SDS011;5977;51.972;7.640;2023-04-25T14:37:15;146.03;;;47.30;;
11835;SDS011;5977;51.972;7.640;2023-04-25T14:39:44;146.57;;;47.40;;
11835;SDS011;5977;51.972;7.640;2023-04-25T14:42:12;145.87;;;47.30;;
11835;SDS011;5977;51.972;7.640;2023-04-25T14:44:39;146.00;;;47.17;;